Academy, New Jersey
Current Conditions -  °F | °C
As of 11:04 PM on Wednesday 22 Oct 2014 (Local Time) from KEWR Reporting Station
Moderate Rain Moderate Rain  
Wind Chill: 11°   Ceiling: 2000
Heat Index: 11°   Visibility: 4mi
Dew Point:   Wind: 26mph
Humidity: 88%   Direction: 350°N
Pressure: 29.75"   Gusts: 33mph
Location:  40.7334°N, 74.1735°W
Report Text: KEWR 230304Z 35023G29KT 4SM RA BR SCT016 BKN020 OVC031 11/09 A2975 RMK AO2 PK WND 35029/0304 P0006 $
Loading
Personal Weather Stations






























Interactive Weather Map New forecast layout! Learn more

10-Day Weather Forecast

Advertisements
Track Severe Weather on mobile